sensor_id;sensor_type;location;lat;lon;timestamp;temperature;humidity
33067;DHT22;19428;49.024;8.366;2022-08-02T00:00:00;21.50;99.90
33067;DHT22;19428;49.024;8.366;2022-08-02T00:02:26;21.50;99.90
33067;DHT22;19428;49.024;8.366;2022-08-02T00:04:52;21.50;99.90
33067;DHT22;19428;49.024;8.366;2022-08-02T00:07:18;21.30;99.90
33067;DHT22;19428;49.024;8.366;2022-08-02T00:09:44;21.30;99.90
33067;DHT22;19428;49.024;8.366;2022-08-02T00:12:10;21.40;99.90
33067;DHT22;19428;49.024;8.366;2022-08-02T00:14:36;21.40;99.90
33067;DHT22;19428;49.024;8.366;2022-08-02T00:17:03;21.40;99.90
33067;DHT22;19428;49.024;8.366;2022-08-02T00:19:29;21.40;99.90
33067;DHT22;19428;49.024;8.366;2022-08-02T00:21:54;21.40;99.90
33067;DHT22;19428;49.024;8.366;2022-08-02T00:24:20;21.40;99.90
33067;DHT22;19428;49.024;8.366;2022-08-02T00:26:46;21.40;99.90
33067;DHT22;19428;49.024;8.366;2022-08-02T00:29:11;21.40;99.90
33067;DHT22;19428;49.024;8.366;2022-08-02T00:31:37;21.20;99.90
33067;DHT22;19428;49.024;8.366;2022-08-02T00:34:04;20.90;99.90
33067;DHT22;19428;49.024;8.366;2022-08-02T00:36:30;20.80;99.90
33067;DHT22;19428;49.024;8.366;2022-08-02T00:38:56;20.90;99.90
33067;DHT22;19428;49.024;8.366;2022-08-02T00:41:21;21.00;99.90
33067;DHT22;19428;49.024;8.366;2022-08-02T00:43:54;21.00;99.90
33067;DHT22;19428;49.024;8.366;2022-08-02T00:46:22;21.00;99.90
33067;DHT22;19428;49.024;8.366;2022-08-02T00:48:48;21.00;99.90
33067;DHT22;19428;49.024;8.366;2022-08-02T00:51:15;21.00;99.90
33067;DHT22;19428;49.024;8.366;2022-08-02T00:53:40;21.00;99.90
33067;DHT22;19428;49.024;8.366;2022-08-02T00:56:07;21.00;99.90
33067;DHT22;19428;49.024;8.366;2022-08-02T00:58:33;20.90;99.90
33067;DHT22;19428;49.024;8.366;2022-08-02T01:00:59;21.00;99.90
33067;DHT22;19428;49.024;8.366;2022-08-02T01:03:26;20.90;99.90
33067;DHT22;19428;49.024;8.366;2022-08-02T01:05:53;20.80;99.90
33067;DHT22;19428;49.024;8.366;2022-08-02T01:08:19;20.80;99.90
33067;DHT22;19428;49.024;8.366;2022-08-02T01:10:45;20.80;99.90
33067;DHT22;19428;49.024;8.366;2022-08-02T01:13:10;20.70;99.90
33067;DHT22;19428;49.024;8.366;2022-08-02T01:15:41;20.80;99.90
33067;DHT22;19428;49.024;8.366;2022-08-02T01:18:14;20.80;99.90
33067;DHT22;19428;49.024;8.366;2022-08-02T01:26:44;20.60;99.90
33067;DHT22;19428;49.024;8.366;2022-08-02T01:29:31;20.50;99.90
33067;DHT22;19428;49.024;8.366;2022-08-02T01:32:12;20.50;99.90
33067;DHT22;19428;49.024;8.366;2022-08-02T01:34:59;20.50;99.90
33067;DHT22;19428;49.024;8.366;2022-08-02T01:37:42;20.50;99.90
33067;DHT22;19428;49.024;8.366;2022-08-02T01:40:12;20.50;99.90
33067;DHT22;19428;49.024;8.366;2022-08-02T01:42:44;20.50;99.90
33067;DHT22;19428;49.024;8.366;2022-08-02T01:45:11;20.40;99.90
33067;DHT22;19428;49.024;8.366;2022-08-02T01:47:39;20.40;99.90
33067;DHT22;19428;49.024;8.366;2022-08-02T01:50:05;20.40;99.90
33067;DHT22;19428;49.024;8.366;2022-08-02T01:52:38;20.40;99.90
33067;DHT22;19428;49.024;8.366;2022-08-02T01:57:40;20.30;99.90
33067;DHT22;19428;49.024;8.366;2022-08-02T02:00:11;20.20;99.90
33067;DHT22;19428;49.024;8.366;2022-08-02T02:02:42;20.20;99.90
33067;DHT22;19428;49.024;8.366;2022-08-02T02:05:13;20.20;99.90
33067;DHT22;19428;49.024;8.366;2022-08-02T02:07:40;20.30;99.90
33067;DHT22;19428;49.024;8.366;2022-08-02T02:10:07;20.20;99.90
33067;DHT22;19428;49.024;8.366;2022-08-02T02:12:35;20.30;99.90
33067;DHT22;19428;49.024;8.366;2022-08-02T02:15:02;20.20;99.90
33067;DHT22;19428;49.024;8.366;2022-08-02T02:17:28;20.20;99.90
33067;DHT22;19428;49.024;8.366;2022-08-02T02:19:57;20.30;99.90
33067;DHT22;19428;49.024;8.366;2022-08-02T02:22:24;20.20;99.90
33067;DHT22;19428;49.024;8.366;2022-08-02T02:24:50;20.00;99.90
33067;DHT22;19428;49.024;8.366;2022-08-02T02:27:16;20.00;99.90
33067;DHT22;19428;49.024;8.366;2022-08-02T02:29:45;20.00;99.90
33067;DHT22;19428;49.024;8.366;2022-08-02T02:32:13;20.10;99.90
33067;DHT22;19428;49.024;8.366;2022-08-02T02:34:42;20.00;99.90
33067;DHT22;19428;49.024;8.366;2022-08-02T02:37:19;20.00;99.90
33067;DHT22;19428;49.024;8.366;2022-08-02T02:39:47;20.00;99.90
33067;DHT22;19428;49.024;8.366;2022-08-02T02:42:35;20.00;99.90
33067;DHT22;19428;49.024;8.366;2022-08-02T02:45:05;20.00;99.90
33067;DHT22;19428;49.024;8.366;2022-08-02T02:47:41;20.00;99.90
33067;DHT22;19428;49.024;8.366;2022-08-02T02:50:08;19.90;99.90
33067;DHT22;19428;49.024;8.366;2022-08-02T02:52:46;19.90;99.90
33067;DHT22;19428;49.024;8.366;2022-08-02T02:55:13;19.90;99.90
33067;DHT22;19428;49.024;8.366;2022-08-02T02:57:49;20.00;99.90
33067;DHT22;19428;49.024;8.366;2022-08-02T03:00:15;20.00;99.90
33067;DHT22;19428;49.024;8.366;2022-08-02T03:02:43;20.00;99.90
33067;DHT22;19428;49.024;8.366;2022-08-02T03:05:12;20.00;99.90
33067;DHT22;19428;49.024;8.366;2022-08-02T03:07:38;20.00;99.90
33067;DHT22;19428;49.024;8.366;2022-08-02T03:10:05;20.00;99.90
33067;DHT22;19428;49.024;8.366;2022-08-02T03:12:35;20.10;99.90
33067;DHT22;19428;49.024;8.366;2022-08-02T03:15:05;20.10;99.90
33067;DHT22;19428;49.024;8.366;2022-08-02T03:17:39;20.10;99.90
33067;DHT22;19428;49.024;8.366;2022-08-02T03:20:09;20.00;99.90
33067;DHT22;19428;49.024;8.366;2022-08-02T03:22:35;20.10;99.90
33067;DHT22;19428;49.024;8.366;2022-08-02T03:25:00;20.10;99.90
33067;DHT22;19428;49.024;8.366;2022-08-02T03:27:26;20.10;99.90
33067;DHT22;19428;49.024;8.366;2022-08-02T03:29:51;20.20;99.90
33067;DHT22;19428;49.024;8.366;2022-08-02T03:32:17;20.10;99.90
33067;DHT22;19428;49.024;8.366;2022-08-02T03:34:43;20.10;99.90
33067;DHT22;19428;49.024;8.366;2022-08-02T03:37:09;20.10;99.90
33067;DHT22;19428;49.024;8.366;2022-08-02T03:39:35;20.20;99.90
33067;DHT22;19428;49.024;8.366;2022-08-02T03:42:00;20.10;99.90
33067;DHT22;19428;49.024;8.366;2022-08-02T03:44:26;20.10;99.90
33067;DHT22;19428;49.024;8.366;2022-08-02T03:46:53;20.10;99.90
33067;DHT22;19428;49.024;8.366;2022-08-02T03:49:20;20.00;99.90
33067;DHT22;19428;49.024;8.366;2022-08-02T03:51:46;19.90;99.90
33067;DHT22;19428;49.024;8.366;2022-08-02T03:54:13;19.90;99.90
33067;DHT22;19428;49.024;8.366;2022-08-02T03:56:39;19.90;99.90
33067;DHT22;19428;49.024;8.366;2022-08-02T03:59:06;19.90;99.90
33067;DHT22;19428;49.024;8.366;2022-08-02T04:01:33;19.80;99.90
33067;DHT22;19428;49.024;8.366;2022-08-02T04:04:00;19.80;99.90
33067;DHT22;19428;49.024;8.366;2022-08-02T04:06:25;19.90;99.90
33067;DHT22;19428;49.024;8.366;2022-08-02T04:09:59;19.80;99.90
33067;DHT22;19428;49.024;8.366;2022-08-02T04:12:44;19.80;99.90
33067;DHT22;19428;49.024;8.366;2022-08-02T04:15:53;19.70;99.90
33067;DHT22;19428;49.024;8.366;2022-08-02T04:18:57;19.70;99.90
33067;DHT22;19428;49.024;8.366;2022-08-02T04:21:45;19.60;99.90
33067;DHT22;19428;49.024;8.366;2022-08-02T04:24:46;19.60;99.90
33067;DHT22;19428;49.024;8.366;2022-08-02T04:27:17;19.60;99.90
33067;DHT22;19428;49.024;8.366;2022-08-02T04:30:10;19.60;99.90
33067;DHT22;19428;49.024;8.366;2022-08-02T04:32:45;19.70;99.90
33067;DHT22;19428;49.024;8.366;2022-08-02T04:35:14;19.70;99.90
33067;DHT22;19428;49.024;8.366;2022-08-02T04:37:41;19.70;99.90
33067;DHT22;19428;49.024;8.366;2022-08-02T04:40:11;19.80;99.90
33067;DHT22;19428;49.024;8.366;2022-08-02T04:42:40;19.80;99.90
33067;DHT22;19428;49.024;8.366;2022-08-02T04:45:07;19.90;99.90
33067;DHT22;19428;49.024;8.366;2022-08-02T04:47:33;20.00;99.90
33067;DHT22;19428;49.024;8.366;2022-08-02T04:49:59;20.00;99.90
33067;DHT22;19428;49.024;8.366;2022-08-02T04:52:26;20.00;99.90
33067;DHT22;19428;49.024;8.366;2022-08-02T04:54:52;19.90;99.90
33067;DHT22;19428;49.024;8.366;2022-08-02T04:57:19;19.90;99.90
33067;DHT22;19428;49.024;8.366;2022-08-02T05:00:06;19.90;99.90
33067;DHT22;19428;49.024;8.366;2022-08-02T05:02:35;20.00;99.90
33067;DHT22;19428;49.024;8.366;2022-08-02T05:05:02;20.00;99.90
33067;DHT22;19428;49.024;8.366;2022-08-02T05:07:36;20.00;99.90
33067;DHT22;19428;49.024;8.366;2022-08-02T05:10:03;20.10;99.90
33067;DHT22;19428;49.024;8.366;2022-08-02T05:12:30;20.20;99.90
33067;DHT22;19428;49.024;8.366;2022-08-02T05:14:57;20.40;99.90
33067;DHT22;19428;49.024;8.366;2022-08-02T05:17:26;20.40;99.90
33067;DHT22;19428;49.024;8.366;2022-08-02T05:19:56;20.50;99.90
33067;DHT22;19428;49.024;8.366;2022-08-02T05:22:22;20.60;99.90
33067;DHT22;19428;49.024;8.366;2022-08-02T05:24:48;20.70;99.90
33067;DHT22;19428;49.024;8.366;2022-08-02T05:27:14;20.80;99.90
33067;DHT22;19428;49.024;8.366;2022-08-02T05:29:40;20.90;99.90
33067;DHT22;19428;49.024;8.366;2022-08-02T05:32:06;21.10;99.90
33067;DHT22;19428;49.024;8.366;2022-08-02T05:34:34;21.10;99.90
33067;DHT22;19428;49.024;8.366;2022-08-02T05:37:00;21.10;99.90
33067;DHT22;19428;49.024;8.366;2022-08-02T05:39:29;21.20;99.90
33067;DHT22;19428;49.024;8.366;2022-08-02T05:41:58;21.20;99.90
33067;DHT22;19428;49.024;8.366;2022-08-02T05:44:24;21.40;99.90
33067;DHT22;19428;49.024;8.366;2022-08-02T05:46:51;22.00;99.90
33067;DHT22;19428;49.024;8.366;2022-08-02T05:49:17;22.10;99.90
33067;DHT22;19428;49.024;8.366;2022-08-02T05:52:10;22.20;99.90
33067;DHT22;19428;49.024;8.366;2022-08-02T06:00:14;21.60;99.90
33067;DHT22;19428;49.024;8.366;2022-08-02T06:05:13;21.80;99.90
33067;DHT22;19428;49.024;8.366;2022-08-02T06:07:41;22.30;99.90
33067;DHT22;19428;49.024;8.366;2022-08-02T06:10:07;22.60;99.90
33067;DHT22;19428;49.024;8.366;2022-08-02T06:12:40;22.80;99.90
33067;DHT22;19428;49.024;8.366;2022-08-02T06:15:06;23.10;99.90
33067;DHT22;19428;49.024;8.366;2022-08-02T06:17:32;22.80;99.90
33067;DHT22;19428;49.024;8.366;2022-08-02T06:19:59;23.20;99.90
33067;DHT22;19428;49.024;8.366;2022-08-02T06:22:26;23.50;99.90
33067;DHT22;19428;49.024;8.366;2022-08-02T06:24:53;23.00;99.90
33067;DHT22;19428;49.024;8.366;2022-08-02T06:27:19;23.20;99.90
33067;DHT22;19428;49.024;8.366;2022-08-02T06:29:48;23.50;99.90
33067;DHT22;19428;49.024;8.366;2022-08-02T06:32:20;23.40;99.90
33067;DHT22;19428;49.024;8.366;2022-08-02T06:34:46;23.50;99.90
33067;DHT22;19428;49.024;8.366;2022-08-02T06:43:05;23.30;99.90
33067;DHT22;19428;49.024;8.366;2022-08-02T06:45:32;23.80;99.90
33067;DHT22;19428;49.024;8.366;2022-08-02T06:47:58;24.00;99.90
33067;DHT22;19428;49.024;8.366;2022-08-02T06:50:24;23.00;99.90
33067;DHT22;19428;49.024;8.366;2022-08-02T06:52:50;22.80;99.90
33067;DHT22;19428;49.024;8.366;2022-08-02T06:55:15;22.80;99.90
33067;DHT22;19428;49.024;8.366;2022-08-02T06:57:41;23.40;99.90
33067;DHT22;19428;49.024;8.366;2022-08-02T07:00:07;23.60;99.90
33067;DHT22;19428;49.024;8.366;2022-08-02T07:02:36;24.10;99.90
33067;DHT22;19428;49.024;8.366;2022-08-02T07:05:04;24.10;99.90
33067;DHT22;19428;49.024;8.366;2022-08-02T07:07:30;23.90;99.90
33067;DHT22;19428;49.024;8.366;2022-08-02T07:09:57;24.00;99.90
33067;DHT22;19428;49.024;8.366;2022-08-02T07:12:23;23.80;99.90
33067;DHT22;19428;49.024;8.366;2022-08-02T07:14:48;24.30;99.90
33067;DHT22;19428;49.024;8.366;2022-08-02T07:17:14;24.40;99.90
33067;DHT22;19428;49.024;8.366;2022-08-02T07:19:39;24.00;99.90
33067;DHT22;19428;49.024;8.366;2022-08-02T07:22:05;24.30;99.90
33067;DHT22;19428;49.024;8.366;2022-08-02T07:24:30;23.90;99.90
33067;DHT22;19428;49.024;8.366;2022-08-02T07:26:57;23.80;99.90
33067;DHT22;19428;49.024;8.366;2022-08-02T07:29:23;24.10;99.90
33067;DHT22;19428;49.024;8.366;2022-08-02T07:31:49;24.30;99.90
33067;DHT22;19428;49.024;8.366;2022-08-02T07:34:14;24.30;99.90
33067;DHT22;19428;49.024;8.366;2022-08-02T07:36:40;24.30;99.90
33067;DHT22;19428;49.024;8.366;2022-08-02T07:39:05;24.30;99.90
33067;DHT22;19428;49.024;8.366;2022-08-02T07:41:31;24.50;99.90
33067;DHT22;19428;49.024;8.366;2022-08-02T07:43:58;24.10;99.90
33067;DHT22;19428;49.024;8.366;2022-08-02T07:46:23;24.00;99.90
33067;DHT22;19428;49.024;8.366;2022-08-02T07:48:50;24.00;99.90
33067;DHT22;19428;49.024;8.366;2022-08-02T07:51:19;23.60;99.90
33067;DHT22;19428;49.024;8.366;2022-08-02T07:53:45;23.40;99.90
33067;DHT22;19428;49.024;8.366;2022-08-02T07:56:10;23.80;99.90
33067;DHT22;19428;49.024;8.366;2022-08-02T07:58:36;24.10;99.90
33067;DHT22;19428;49.024;8.366;2022-08-02T08:01:02;24.10;99.90
33067;DHT22;19428;49.024;8.366;2022-08-02T08:03:27;24.40;99.90
33067;DHT22;19428;49.024;8.366;2022-08-02T08:05:53;23.70;99.90
33067;DHT22;19428;49.024;8.366;2022-08-02T08:08:19;24.20;99.90
33067;DHT22;19428;49.024;8.366;2022-08-02T08:10:45;24.60;99.90
33067;DHT22;19428;49.024;8.366;2022-08-02T08:13:11;24.40;99.90
33067;DHT22;19428;49.024;8.366;2022-08-02T08:15:36;24.30;99.90
33067;DHT22;19428;49.024;8.366;2022-08-02T08:18:02;24.40;99.90
33067;DHT22;19428;49.024;8.366;2022-08-02T08:20:28;24.80;99.90
33067;DHT22;19428;49.024;8.366;2022-08-02T08:22:53;24.60;99.90
33067;DHT22;19428;49.024;8.366;2022-08-02T08:25:19;24.90;99.90
33067;DHT22;19428;49.024;8.366;2022-08-02T08:27:51;25.20;99.90
33067;DHT22;19428;49.024;8.366;2022-08-02T08:30:18;25.00;99.90
33067;DHT22;19428;49.024;8.366;2022-08-02T08:32:44;24.80;99.90
33067;DHT22;19428;49.024;8.366;2022-08-02T08:35:10;25.10;99.90
33067;DHT22;19428;49.024;8.366;2022-08-02T08:37:36;25.10;99.90
33067;DHT22;19428;49.024;8.366;2022-08-02T08:40:07;25.40;99.90
33067;DHT22;19428;49.024;8.366;2022-08-02T08:42:35;25.60;99.90
33067;DHT22;19428;49.024;8.366;2022-08-02T08:45:00;25.50;99.90
33067;DHT22;19428;49.024;8.366;2022-08-02T08:47:38;25.70;99.90
33067;DHT22;19428;49.024;8.366;2022-08-02T08:50:40;25.90;99.90
33067;DHT22;19428;49.024;8.366;2022-08-02T08:53:03;25.90;99.90
33067;DHT22;19428;49.024;8.366;2022-08-02T08:55:29;25.60;99.90
33067;DHT22;19428;49.024;8.366;2022-08-02T08:57:58;25.20;99.90
33067;DHT22;19428;49.024;8.366;2022-08-02T09:00:24;25.50;99.90
33067;DHT22;19428;49.024;8.366;2022-08-02T09:02:50;25.60;99.90
33067;DHT22;19428;49.024;8.366;2022-08-02T09:05:16;26.20;99.90
33067;DHT22;19428;49.024;8.366;2022-08-02T09:07:42;26.20;99.90
33067;DHT22;19428;49.024;8.366;2022-08-02T09:13:15;26.40;99.90
33067;DHT22;19428;49.024;8.366;2022-08-02T09:15:43;26.30;99.90
33067;DHT22;19428;49.024;8.366;2022-08-02T09:18:10;26.10;99.90
33067;DHT22;19428;49.024;8.366;2022-08-02T09:20:52;25.90;99.90
33067;DHT22;19428;49.024;8.366;2022-08-02T09:23:18;26.10;99.90
33067;DHT22;19428;49.024;8.366;2022-08-02T09:25:55;26.20;99.90
33067;DHT22;19428;49.024;8.366;2022-08-02T09:28:25;26.00;99.90
33067;DHT22;19428;49.024;8.366;2022-08-02T09:30:52;26.10;99.90
33067;DHT22;19428;49.024;8.366;2022-08-02T09:33:27;26.50;99.90
33067;DHT22;19428;49.024;8.366;2022-08-02T09:36:07;26.30;99.90
33067;DHT22;19428;49.024;8.366;2022-08-02T09:38:33;26.40;99.90
33067;DHT22;19428;49.024;8.366;2022-08-02T09:41:00;26.40;99.90
33067;DHT22;19428;49.024;8.366;2022-08-02T09:46:18;26.30;99.90
33067;DHT22;19428;49.024;8.366;2022-08-02T09:48:55;26.60;99.90
33067;DHT22;19428;49.024;8.366;2022-08-02T09:51:29;26.50;99.90
33067;DHT22;19428;49.024;8.366;2022-08-02T09:53:58;26.40;99.90
33067;DHT22;19428;49.024;8.366;2022-08-02T09:56:25;27.10;99.90
33067;DHT22;19428;49.024;8.366;2022-08-02T09:58:52;26.90;99.90
33067;DHT22;19428;49.024;8.366;2022-08-02T10:01:20;26.90;99.90
33067;DHT22;19428;49.024;8.366;2022-08-02T10:04:01;27.10;99.90
33067;DHT22;19428;49.024;8.366;2022-08-02T10:06:27;27.00;99.90
33067;DHT22;19428;49.024;8.366;2022-08-02T10:08:54;26.70;99.90
33067;DHT22;19428;49.024;8.366;2022-08-02T10:11:25;26.90;99.90
33067;DHT22;19428;49.024;8.366;2022-08-02T10:13:52;26.80;99.90
33067;DHT22;19428;49.024;8.366;2022-08-02T10:16:19;26.60;99.90
33067;DHT22;19428;49.024;8.366;2022-08-02T10:18:48;26.20;99.90
33067;DHT22;19428;49.024;8.366;2022-08-02T10:21:19;26.20;99.90
33067;DHT22;19428;49.024;8.366;2022-08-02T10:23:48;26.30;99.90
33067;DHT22;19428;49.024;8.366;2022-08-02T10:26:16;26.40;99.90
33067;DHT22;19428;49.024;8.366;2022-08-02T10:28:45;26.70;99.90
33067;DHT22;19428;49.024;8.366;2022-08-02T10:31:16;26.80;99.90
33067;DHT22;19428;49.024;8.366;2022-08-02T10:33:43;26.50;99.90
33067;DHT22;19428;49.024;8.366;2022-08-02T10:36:10;26.60;99.90
33067;DHT22;19428;49.024;8.366;2022-08-02T10:38:37;26.80;99.90
33067;DHT22;19428;49.024;8.366;2022-08-02T10:41:03;27.40;99.90
33067;DHT22;19428;49.024;8.366;2022-08-02T10:46:29;27.10;99.90
33067;DHT22;19428;49.024;8.366;2022-08-02T10:51:56;27.60;99.90
33067;DHT22;19428;49.024;8.366;2022-08-02T10:54:27;28.10;99.90
33067;DHT22;19428;49.024;8.366;2022-08-02T10:56:55;28.60;99.90
33067;DHT22;19428;49.024;8.366;2022-08-02T11:01:55;28.00;99.90
33067;DHT22;19428;49.024;8.366;2022-08-02T11:07:15;27.50;99.90
33067;DHT22;19428;49.024;8.366;2022-08-02T11:09:46;27.70;99.90
33067;DHT22;19428;49.024;8.366;2022-08-02T11:12:14;27.90;99.90
33067;DHT22;19428;49.024;8.366;2022-08-02T11:14:41;28.00;99.90
33067;DHT22;19428;49.024;8.366;2022-08-02T11:17:18;28.40;99.90
33067;DHT22;19428;49.024;8.366;2022-08-02T11:22:38;28.00;99.90
33067;DHT22;19428;49.024;8.366;2022-08-02T11:27:52;28.00;99.40
33067;DHT22;19428;49.024;8.366;2022-08-02T11:30:19;28.60;98.90
33067;DHT22;19428;49.024;8.366;2022-08-02T11:32:46;29.30;98.40
33067;DHT22;19428;49.024;8.366;2022-08-02T11:35:12;30.00;97.20
33067;DHT22;19428;49.024;8.366;2022-08-02T11:37:40;29.40;96.00
33067;DHT22;19428;49.024;8.366;2022-08-02T11:40:11;28.80;96.00
33067;DHT22;19428;49.024;8.366;2022-08-02T11:42:40;27.80;98.10
33067;DHT22;19428;49.024;8.366;2022-08-02T11:45:08;27.40;99.60
33067;DHT22;19428;49.024;8.366;2022-08-02T11:47:45;27.90;99.60
33067;DHT22;19428;49.024;8.366;2022-08-02T11:50:11;27.90;98.10
33067;DHT22;19428;49.024;8.366;2022-08-02T11:52:37;27.70;99.00
33067;DHT22;19428;49.024;8.366;2022-08-02T11:55:05;27.60;98.40
33067;DHT22;19428;49.024;8.366;2022-08-02T11:57:31;27.70;98.40
33067;DHT22;19428;49.024;8.366;2022-08-02T11:59:56;27.60;98.20
33067;DHT22;19428;49.024;8.366;2022-08-02T12:02:28;28.00;97.20
33067;DHT22;19428;49.024;8.366;2022-08-02T12:04:56;29.00;95.50
33067;DHT22;19428;49.024;8.366;2022-08-02T12:07:27;29.90;94.00
33067;DHT22;19428;49.024;8.366;2022-08-02T12:10:03;29.20;93.50
33067;DHT22;19428;49.024;8.366;2022-08-02T12:12:29;30.00;94.20
33067;DHT22;19428;49.024;8.366;2022-08-02T12:14:55;30.70;91.60
33067;DHT22;19428;49.024;8.366;2022-08-02T12:17:24;29.60;92.10
33067;DHT22;19428;49.024;8.366;2022-08-02T12:20:10;31.00;91.40
33067;DHT22;19428;49.024;8.366;2022-08-02T12:22:36;30.60;90.50
33067;DHT22;19428;49.024;8.366;2022-08-02T12:25:24;30.90;89.90
33067;DHT22;19428;49.024;8.366;2022-08-02T12:27:50;31.30;84.40
33067;DHT22;19428;49.024;8.366;2022-08-02T12:30:17;30.60;85.70
33067;DHT22;19428;49.024;8.366;2022-08-02T12:32:44;31.40;85.60
33067;DHT22;19428;49.024;8.366;2022-08-02T12:35:12;31.30;83.60
33067;DHT22;19428;49.024;8.366;2022-08-02T12:37:40;29.90;86.80
33067;DHT22;19428;49.024;8.366;2022-08-02T12:40:32;30.60;86.60
33067;DHT22;19428;49.024;8.366;2022-08-02T12:43:04;31.90;83.50
33067;DHT22;19428;49.024;8.366;2022-08-02T12:45:33;32.60;81.40
33067;DHT22;19428;49.024;8.366;2022-08-02T12:48:08;32.60;81.10
33067;DHT22;19428;49.024;8.366;2022-08-02T12:50:34;32.80;79.30
33067;DHT22;19428;49.024;8.366;2022-08-02T12:55:31;31.50;77.00
33067;DHT22;19428;49.024;8.366;2022-08-02T12:58:00;31.90;76.20
33067;DHT22;19428;49.024;8.366;2022-08-02T13:00:36;32.40;74.90
33067;DHT22;19428;49.024;8.366;2022-08-02T13:03:02;31.60;73.00
33067;DHT22;19428;49.024;8.366;2022-08-02T13:05:29;31.50;74.20
33067;DHT22;19428;49.024;8.366;2022-08-02T13:07:56;32.00;72.20
33067;DHT22;19428;49.024;8.366;2022-08-02T13:10:22;31.10;72.40
33067;DHT22;19428;49.024;8.366;2022-08-02T13:12:49;31.90;71.10
33067;DHT22;19428;49.024;8.366;2022-08-02T13:15:15;31.70;70.20
33067;DHT22;19428;49.024;8.366;2022-08-02T13:17:41;31.00;71.00
33067;DHT22;19428;49.024;8.366;2022-08-02T13:20:07;30.80;71.10
33067;DHT22;19428;49.024;8.366;2022-08-02T13:22:34;31.50;68.60
33067;DHT22;19428;49.024;8.366;2022-08-02T13:25:00;31.60;70.00
33067;DHT22;19428;49.024;8.366;2022-08-02T13:27:26;31.40;67.10
33067;DHT22;19428;49.024;8.366;2022-08-02T13:29:53;31.00;68.10
33067;DHT22;19428;49.024;8.366;2022-08-02T13:32:19;31.50;68.00
33067;DHT22;19428;49.024;8.366;2022-08-02T13:34:46;32.80;68.90
33067;DHT22;19428;49.024;8.366;2022-08-02T13:37:12;33.30;64.90
33067;DHT22;19428;49.024;8.366;2022-08-02T13:39:38;34.10;62.30
33067;DHT22;19428;49.024;8.366;2022-08-02T13:42:03;33.40;61.00
33067;DHT22;19428;49.024;8.366;2022-08-02T13:44:29;33.30;61.60
33067;DHT22;19428;49.024;8.366;2022-08-02T13:46:55;33.00;61.80
33067;DHT22;19428;49.024;8.366;2022-08-02T13:49:20;32.50;63.20
33067;DHT22;19428;49.024;8.366;2022-08-02T13:51:47;33.00;61.90
33067;DHT22;19428;49.024;8.366;2022-08-02T13:54:13;32.80;61.90
33067;DHT22;19428;49.024;8.366;2022-08-02T13:56:39;33.40;61.00
33067;DHT22;19428;49.024;8.366;2022-08-02T13:59:05;33.50;60.70
33067;DHT22;19428;49.024;8.366;2022-08-02T14:01:30;33.40;58.50
33067;DHT22;19428;49.024;8.366;2022-08-02T14:03:57;32.60;59.30
33067;DHT22;19428;49.024;8.366;2022-08-02T14:06:24;32.90;59.40
33067;DHT22;19428;49.024;8.366;2022-08-02T14:08:50;33.40;58.30
33067;DHT22;19428;49.024;8.366;2022-08-02T14:11:15;32.60;55.80
33067;DHT22;19428;49.024;8.366;2022-08-02T14:13:41;31.70;56.60
33067;DHT22;19428;49.024;8.366;2022-08-02T14:16:06;33.10;55.30
33067;DHT22;19428;49.024;8.366;2022-08-02T14:18:32;33.10;55.10
33067;DHT22;19428;49.024;8.366;2022-08-02T14:20:58;32.90;57.90
33067;DHT22;19428;49.024;8.366;2022-08-02T14:23:23;32.80;56.00
33067;DHT22;19428;49.024;8.366;2022-08-02T14:25:49;33.10;56.00
33067;DHT22;19428;49.024;8.366;2022-08-02T14:28:15;33.50;54.40
33067;DHT22;19428;49.024;8.366;2022-08-02T14:30:40;33.00;54.80
33067;DHT22;19428;49.024;8.366;2022-08-02T14:33:06;32.40;54.90
33067;DHT22;19428;49.024;8.366;2022-08-02T14:35:32;32.80;54.80
33067;DHT22;19428;49.024;8.366;2022-08-02T14:37:58;32.70;55.40
33067;DHT22;19428;49.024;8.366;2022-08-02T14:40:23;32.80;57.30
33067;DHT22;19428;49.024;8.366;2022-08-02T14:42:51;33.30;56.10
33067;DHT22;19428;49.024;8.366;2022-08-02T14:45:17;32.50;54.10
33067;DHT22;19428;49.024;8.366;2022-08-02T14:47:47;33.40;54.20
33067;DHT22;19428;49.024;8.366;2022-08-02T14:50:14;32.80;54.60
33067;DHT22;19428;49.024;8.366;2022-08-02T14:52:41;33.10;55.10
33067;DHT22;19428;49.024;8.366;2022-08-02T14:55:07;33.20;52.80
33067;DHT22;19428;49.024;8.366;2022-08-02T14:57:32;31.70;54.10
33067;DHT22;19428;49.024;8.366;2022-08-02T14:59:58;32.70;54.40
33067;DHT22;19428;49.024;8.366;2022-08-02T15:02:26;33.10;54.60
33067;DHT22;19428;49.024;8.366;2022-08-02T15:04:52;33.50;50.80
33067;DHT22;19428;49.024;8.366;2022-08-02T15:07:18;32.90;52.30
33067;DHT22;19428;49.024;8.366;2022-08-02T15:09:43;32.50;52.00
33067;DHT22;19428;49.024;8.366;2022-08-02T15:12:09;33.50;52.00
33067;DHT22;19428;49.024;8.366;2022-08-02T15:14:36;33.80;51.30
33067;DHT22;19428;49.024;8.366;2022-08-02T15:17:02;33.80;50.90
33067;DHT22;19428;49.024;8.366;2022-08-02T15:19:29;33.30;50.60
33067;DHT22;19428;49.024;8.366;2022-08-02T15:21:54;33.10;50.20
33067;DHT22;19428;49.024;8.366;2022-08-02T15:24:20;33.20;51.80
33067;DHT22;19428;49.024;8.366;2022-08-02T15:26:45;33.50;51.10
33067;DHT22;19428;49.024;8.366;2022-08-02T15:29:11;33.30;50.70
33067;DHT22;19428;49.024;8.366;2022-08-02T15:31:36;32.50;50.20
33067;DHT22;19428;49.024;8.366;2022-08-02T15:34:02;32.80;50.80
33067;DHT22;19428;49.024;8.366;2022-08-02T15:36:28;32.70;49.40
33067;DHT22;19428;49.024;8.366;2022-08-02T15:38:53;33.30;49.80
33067;DHT22;19428;49.024;8.366;2022-08-02T15:41:19;33.30;48.90
33067;DHT22;19428;49.024;8.366;2022-08-02T15:43:45;32.80;48.00
33067;DHT22;19428;49.024;8.366;2022-08-02T15:46:10;32.50;49.70
33067;DHT22;19428;49.024;8.366;2022-08-02T15:48:36;33.00;49.70
33067;DHT22;19428;49.024;8.366;2022-08-02T15:51:01;33.10;49.30
33067;DHT22;19428;49.024;8.366;2022-08-02T15:53:27;32.80;48.70
33067;DHT22;19428;49.024;8.366;2022-08-02T15:55:53;33.00;49.20
33067;DHT22;19428;49.024;8.366;2022-08-02T15:58:19;32.90;47.20
33067;DHT22;19428;49.024;8.366;2022-08-02T16:00:45;33.60;47.80
33067;DHT22;19428;49.024;8.366;2022-08-02T16:03:10;33.40;48.60
33067;DHT22;19428;49.024;8.366;2022-08-02T16:05:36;32.60;50.50
33067;DHT22;19428;49.024;8.366;2022-08-02T16:08:01;32.00;51.20
33067;DHT22;19428;49.024;8.366;2022-08-02T16:10:27;32.00;51.90
33067;DHT22;19428;49.024;8.366;2022-08-02T16:12:53;31.80;51.50
33067;DHT22;19428;49.024;8.366;2022-08-02T16:15:38;31.70;50.20
33067;DHT22;19428;49.024;8.366;2022-08-02T16:18:04;32.80;50.30
33067;DHT22;19428;49.024;8.366;2022-08-02T16:20:29;33.20;49.70
33067;DHT22;19428;49.024;8.366;2022-08-02T16:22:55;32.90;48.80
33067;DHT22;19428;49.024;8.366;2022-08-02T16:25:20;32.90;47.80